createdAt,value
2023-04-19T00:00:08.257Z,47.13
2023-04-19T00:02:36.549Z,43.00
2023-04-19T00:05:05.194Z,46.80
2023-04-19T00:07:33.332Z,50.63
2023-04-19T00:10:01.254Z,52.73
2023-04-19T00:12:29.173Z,48.83
2023-04-19T00:14:58.520Z,48.20
2023-04-19T00:17:27.276Z,50.73
2023-04-19T00:19:55.470Z,51.97
2023-04-19T00:22:23.480Z,48.00
2023-04-19T00:24:51.468Z,40.50
2023-04-19T00:27:19.441Z,46.60
2023-04-19T00:29:47.396Z,44.97
2023-04-19T00:32:17.028Z,47.73
2023-04-19T00:34:44.962Z,38.57
2023-04-19T00:37:12.915Z,45.70
2023-04-19T00:39:41.044Z,41.43
2023-04-19T00:42:09.028Z,39.33
2023-04-19T00:44:37.004Z,42.60
2023-04-19T00:47:05.063Z,33.00
2023-04-19T00:49:34.705Z,37.10
2023-04-19T00:52:02.665Z,37.03
2023-04-19T00:54:31.365Z,36.43
2023-04-19T00:56:59.433Z,34.50
2023-04-19T00:59:27.897Z,40.67
2023-04-19T01:01:56.137Z,38.70
2023-04-19T01:04:24.905Z,39.93
2023-04-19T01:06:55.429Z,40.57
2023-04-19T01:09:23.404Z,51.10
2023-04-19T01:11:51.832Z,43.80
2023-04-19T01:14:19.784Z,46.73
2023-04-19T01:16:47.928Z,46.90
2023-04-19T01:19:16.735Z,42.37
2023-04-19T01:21:46.293Z,42.47
2023-04-19T01:24:16.236Z,49.27
2023-04-19T01:26:44.499Z,52.50
2023-04-19T01:29:12.444Z,47.77
2023-04-19T01:31:40.486Z,50.10
2023-04-19T01:34:08.557Z,48.30
2023-04-19T01:36:36.513Z,49.30
2023-04-19T01:39:04.639Z,44.77
2023-04-19T01:41:33.945Z,52.90
2023-04-19T01:44:01.993Z,59.37
2023-04-19T01:46:30.037Z,49.00
2023-04-19T01:48:57.984Z,55.93
2023-04-19T01:51:26.159Z,55.40
2023-04-19T01:53:54.689Z,53.83
2023-04-19T01:56:22.794Z,55.07
2023-04-19T01:58:52.159Z,55.17
2023-04-19T02:01:20.249Z,55.97
2023-04-19T02:03:48.530Z,54.87
2023-04-19T02:06:17.007Z,57.30
2023-04-19T02:08:45.008Z,59.70
2023-04-19T02:11:15.458Z,55.90
2023-04-19T02:13:43.769Z,49.07
2023-04-19T02:16:13.430Z,47.13
2023-04-19T02:18:41.513Z,36.20
2023-04-19T02:21:10.908Z,33.13
2023-04-19T02:23:38.911Z,31.33
2023-04-19T02:26:07.090Z,36.80
2023-04-19T02:28:35.098Z,44.70
2023-04-19T02:31:06.646Z,49.93
2023-04-19T02:33:36.673Z,53.00
2023-04-19T02:36:04.948Z,56.20
2023-04-19T02:38:33.031Z,58.30
2023-04-19T02:41:01.626Z,61.27
2023-04-19T02:43:29.610Z,56.20
2023-04-19T02:45:57.867Z,54.43
2023-04-19T02:48:26.122Z,58.00
2023-04-19T02:50:55.549Z,58.57
2023-04-19T02:53:23.479Z,59.33
2023-04-19T02:55:51.716Z,62.87
2023-04-19T02:58:19.683Z,61.27
2023-04-19T03:00:47.674Z,62.90
2023-04-19T03:03:15.719Z,60.00
2023-04-19T03:05:43.670Z,58.60
2023-04-19T03:08:13.005Z,61.07
2023-04-19T03:10:41.056Z,54.23
2023-04-19T03:13:09.189Z,54.70
2023-04-19T03:15:37.223Z,49.00
2023-04-19T03:18:05.360Z,54.83
2023-04-19T03:20:34.362Z,49.57
2023-04-19T03:23:02.374Z,50.27
2023-04-19T03:25:32.055Z,55.80
2023-04-19T03:28:00.137Z,56.57
2023-04-19T03:30:28.130Z,56.10
2023-04-19T03:32:56.310Z,65.73
2023-04-19T03:35:26.151Z,58.70
2023-04-19T03:37:54.069Z,66.63
2023-04-19T03:40:22.483Z,69.50
2023-04-19T03:42:51.786Z,77.00
2023-04-19T03:45:19.848Z,73.60
2023-04-19T03:47:47.853Z,69.20
2023-04-19T03:50:15.818Z,71.10
2023-04-19T03:52:43.885Z,71.87
2023-04-19T03:55:13.967Z,76.03
2023-04-19T03:57:42.009Z,57.27
2023-04-19T04:00:13.217Z,66.30
2023-04-19T04:02:41.453Z,66.30
2023-04-19T04:05:09.938Z,66.23
2023-04-19T04:07:37.993Z,68.20
2023-04-19T04:10:07.103Z,67.37
2023-04-19T04:12:35.082Z,66.83
2023-04-19T04:15:03.869Z,62.57
2023-04-19T04:17:33.216Z,63.93
2023-04-19T04:20:01.215Z,63.80
2023-04-19T04:22:29.259Z,64.53
2023-04-19T04:24:58.151Z,62.03
2023-04-19T04:27:26.342Z,56.27
2023-04-19T04:29:54.443Z,64.83
2023-04-19T04:32:23.527Z,68.73
2023-04-19T04:34:53.175Z,66.70
2023-04-19T04:37:21.162Z,73.67
2023-04-19T04:39:49.612Z,62.17
2023-04-19T04:42:17.629Z,70.47
2023-04-19T04:44:47.319Z,67.13
2023-04-19T04:47:15.482Z,73.70
2023-04-19T04:49:43.429Z,65.13
2023-04-19T04:52:12.718Z,72.77
2023-04-19T04:54:41.068Z,57.57
2023-04-19T04:57:10.078Z,70.23
2023-04-19T04:59:38.077Z,69.67
2023-04-19T05:02:06.128Z,76.63
2023-04-19T05:04:34.874Z,64.67
2023-04-19T05:07:02.996Z,57.33
2023-04-19T05:09:32.318Z,69.90
2023-04-19T05:12:00.461Z,61.00
2023-04-19T05:14:28.430Z,66.43
2023-04-19T05:16:56.379Z,65.70
2023-04-19T05:19:24.378Z,55.20
2023-04-19T05:21:52.322Z,55.80
2023-04-19T05:24:20.366Z,54.63
2023-04-19T05:26:49.705Z,60.50
2023-04-19T05:29:18.438Z,47.23
2023-04-19T05:31:46.516Z,54.70
2023-04-19T05:34:14.704Z,70.80
2023-04-19T05:36:42.987Z,53.77
2023-04-19T05:39:11.244Z,62.00
2023-04-19T05:41:39.248Z,50.93
2023-04-19T05:44:08.754Z,56.90
2023-04-19T05:46:37.206Z,57.63
2023-04-19T05:49:05.326Z,46.63
2023-04-19T05:51:33.334Z,51.43
2023-04-19T05:54:01.600Z,46.20
2023-04-19T05:56:29.649Z,42.30
2023-04-19T05:58:58.240Z,45.43
2023-04-19T06:01:27.706Z,49.37
2023-04-19T06:03:55.907Z,46.07
2023-04-19T06:06:24.912Z,41.70
2023-04-19T06:08:54.908Z,42.70
2023-04-19T06:11:31.541Z,43.43
2023-04-19T06:14:07.107Z,46.63
2023-04-19T06:16:36.550Z,50.90
2023-04-19T06:19:04.665Z,41.80
2023-04-19T06:21:32.792Z,57.33
2023-04-19T06:24:01.152Z,54.27
2023-04-19T06:26:29.080Z,56.07
2023-04-19T06:28:57.132Z,50.23
2023-04-19T06:31:25.442Z,53.47
2023-04-19T06:33:54.858Z,55.00
2023-04-19T06:36:22.820Z,49.80
2023-04-19T06:38:50.884Z,48.63
2023-04-19T06:41:19.410Z,49.13
2023-04-19T06:43:47.393Z,54.87
2023-04-19T06:46:15.923Z,53.37
2023-04-19T06:48:43.996Z,40.90
2023-04-19T06:51:13.318Z,46.40
2023-04-19T06:53:41.423Z,46.00
2023-04-19T06:56:10.223Z,46.13
2023-04-19T06:58:38.305Z,45.90
2023-04-19T07:01:06.493Z,40.50
2023-04-19T07:03:34.792Z,34.07
2023-04-19T07:06:03.032Z,32.17
2023-04-19T07:08:42.323Z,32.60
2023-04-19T07:11:17.015Z,36.03
2023-04-19T07:13:45.118Z,29.70
2023-04-19T07:16:14.414Z,27.60
2023-04-19T07:18:42.542Z,24.93
2023-04-19T07:21:10.697Z,31.70
2023-04-19T07:23:40.190Z,29.87
2023-04-19T07:26:09.523Z,18.73
2023-04-19T07:28:37.584Z,24.33
2023-04-19T07:31:05.765Z,24.23
2023-04-19T07:33:33.834Z,27.27
2023-04-19T07:36:01.831Z,25.50
2023-04-19T07:38:29.975Z,22.40
2023-04-19T07:40:59.265Z,24.53
2023-04-19T07:43:27.812Z,27.77
2023-04-19T07:45:56.123Z,26.60
2023-04-19T07:48:24.164Z,25.63
2023-04-19T07:50:52.160Z,27.90
2023-04-19T07:53:20.525Z,36.10
2023-04-19T07:55:48.567Z,28.47
2023-04-19T07:58:17.902Z,22.37
2023-04-19T08:00:45.894Z,23.67
2023-04-19T08:03:14.132Z,28.00
2023-04-19T08:05:42.411Z,19.17
2023-04-19T08:08:10.429Z,23.33
2023-04-19T08:10:38.398Z,21.13
2023-04-19T08:13:06.908Z,22.00
2023-04-19T08:16:23.664Z,23.13
2023-04-19T08:18:25.693Z,19.40
2023-04-19T08:20:53.876Z,25.00
2023-04-19T08:23:26.048Z,25.27
2023-04-19T08:25:59.932Z,26.30
2023-04-19T08:28:28.020Z,23.03
2023-04-19T08:31:00.680Z,27.70
2023-04-19T08:33:29.896Z,26.67
2023-04-19T08:35:57.880Z,28.87
2023-04-19T08:38:25.929Z,47.07
2023-04-19T08:40:55.803Z,32.60
2023-04-19T08:43:28.733Z,36.40
2023-04-19T08:45:59.185Z,35.83
2023-04-19T08:48:29.137Z,29.90
2023-04-19T08:51:05.127Z,28.60
2023-04-19T08:53:35.765Z,32.77
2023-04-19T08:56:15.137Z,36.57
2023-04-19T09:03:59.373Z,26.20
2023-04-19T09:06:29.358Z,31.03
2023-04-19T09:09:33.399Z,28.80
2023-04-19T09:12:04.678Z,23.87
2023-04-19T09:14:32.629Z,29.97
2023-04-19T09:17:17.834Z,29.30
2023-04-19T09:19:49.950Z,30.17
2023-04-19T09:22:18.851Z,32.47
2023-04-19T09:25:22.587Z,40.13
2023-04-19T09:27:37.051Z,38.83
2023-04-19T09:30:09.259Z,29.03
2023-04-19T09:32:49.752Z,32.93
2023-04-19T09:35:18.015Z,35.67
2023-04-19T09:38:05.597Z,34.03
2023-04-19T09:40:34.328Z,45.77
2023-04-19T09:43:17.864Z,32.43
2023-04-19T09:45:51.585Z,26.20
2023-04-19T09:48:20.987Z,25.43
2023-04-19T09:50:58.571Z,25.50
2023-04-19T09:53:33.996Z,20.83
2023-04-19T09:56:03.855Z,27.10
2023-04-19T10:03:38.260Z,23.90
2023-04-19T10:06:10.541Z,21.43
2023-04-19T10:08:39.443Z,25.20
2023-04-19T10:11:07.891Z,22.93
2023-04-19T10:13:38.589Z,23.00
2023-04-19T10:16:18.264Z,25.03
2023-04-19T10:18:49.624Z,22.33
2023-04-19T10:21:17.891Z,24.67
2023-04-19T10:23:45.902Z,20.83
2023-04-19T10:26:13.835Z,25.10
2023-04-19T10:28:43.399Z,24.43
2023-04-19T10:31:13.989Z,22.90
2023-04-19T10:33:43.112Z,19.27
2023-04-19T10:36:17.529Z,18.73
2023-04-19T10:38:48.024Z,20.80
2023-04-19T10:41:22.263Z,20.03
2023-04-19T10:44:11.123Z,25.97
2023-04-19T10:46:41.573Z,17.67
2023-04-19T10:49:11.338Z,18.30
2023-04-19T10:51:43.213Z,16.17
2023-04-19T10:54:28.590Z,17.17
2023-04-19T10:57:02.615Z,17.30
2023-04-19T10:59:31.753Z,20.60
2023-04-19T11:02:02.128Z,17.63
2023-04-19T11:04:59.304Z,19.20
2023-04-19T11:07:29.344Z,21.03
2023-04-19T11:09:57.342Z,18.83
2023-04-19T11:12:25.366Z,23.00
2023-04-19T11:14:54.635Z,15.40
2023-04-19T11:17:25.891Z,18.90
2023-04-19T11:19:58.210Z,17.73
2023-04-19T11:22:31.146Z,14.30
2023-04-19T11:25:05.881Z,17.50
2023-04-19T11:27:34.405Z,23.50
2023-04-19T11:30:07.440Z,15.17
2023-04-19T11:32:35.885Z,19.43
2023-04-19T11:35:08.977Z,24.03
2023-04-19T11:37:40.295Z,21.73
2023-04-19T11:40:10.012Z,21.20
2023-04-19T11:42:38.160Z,19.60
2023-04-19T11:45:13.180Z,25.90
2023-04-19T11:47:51.528Z,21.20
2023-04-19T11:50:33.376Z,25.50
2023-04-19T11:53:11.716Z,21.60
2023-04-19T11:55:39.896Z,22.93
2023-04-19T11:58:10.570Z,23.40
2023-04-19T12:00:38.662Z,17.50
2023-04-19T12:03:06.896Z,17.63
2023-04-19T12:05:35.484Z,19.93
2023-04-19T12:08:08.074Z,19.30
2023-04-19T12:10:36.762Z,19.00
2023-04-19T12:13:18.306Z,21.87
2023-04-19T12:15:49.020Z,33.73
2023-04-19T12:18:17.112Z,18.50
2023-04-19T12:20:47.587Z,20.73
2023-04-19T12:23:18.171Z,19.20
2023-04-19T12:25:47.423Z,22.47
2023-04-19T12:28:16.851Z,34.83
2023-04-19T12:30:44.891Z,27.77
2023-04-19T12:33:12.989Z,14.77
2023-04-19T12:35:41.172Z,25.83
2023-04-19T12:38:09.805Z,37.70
2023-04-19T12:40:39.178Z,19.77
2023-04-19T12:43:07.822Z,13.60
2023-04-19T12:45:35.861Z,24.90
2023-04-19T12:48:03.951Z,19.67
2023-04-19T12:50:31.990Z,20.80
2023-04-19T12:52:59.949Z,22.80
2023-04-19T12:55:28.143Z,23.30
2023-04-19T12:57:57.451Z,20.00
2023-04-19T13:00:25.942Z,22.23
2023-04-19T13:02:54.453Z,26.07
2023-04-19T13:05:22.826Z,22.03
2023-04-19T13:07:50.825Z,22.40
2023-04-19T13:10:18.922Z,20.10
2023-04-19T13:12:46.924Z,25.90
2023-04-19T13:15:17.460Z,23.33
2023-04-19T13:17:45.636Z,22.17
2023-04-19T13:20:14.346Z,17.00
2023-04-19T13:22:42.524Z,16.37
2023-04-19T13:25:11.236Z,20.43
2023-04-19T13:27:39.314Z,13.83
2023-04-19T13:30:08.793Z,14.20
2023-04-19T13:32:38.272Z,23.70
2023-04-19T13:35:07.832Z,19.43
2023-04-19T13:37:36.025Z,28.93
2023-04-19T13:40:18.066Z,17.90
2023-04-19T13:42:47.725Z,14.13
2023-04-19T13:45:15.738Z,19.00
2023-04-19T13:47:45.110Z,17.17
2023-04-19T13:50:13.672Z,14.67
2023-04-19T13:52:41.754Z,13.10
2023-04-19T13:55:10.469Z,13.97
2023-04-19T13:57:38.661Z,12.80
2023-04-19T14:00:08.271Z,16.73
2023-04-19T14:02:36.425Z,23.00
2023-04-19T14:05:06.864Z,28.67
2023-04-19T14:07:34.905Z,14.30
2023-04-19T14:10:02.961Z,17.57
2023-04-19T14:12:30.916Z,15.60
2023-04-19T14:14:58.878Z,17.27
2023-04-19T14:17:27.178Z,16.27
2023-04-19T14:19:56.635Z,15.67
2023-04-19T14:22:26.023Z,15.43
2023-04-19T14:24:53.981Z,17.23
2023-04-19T14:27:22.088Z,15.70
2023-04-19T14:29:50.384Z,15.00
2023-04-19T14:32:26.077Z,15.60
2023-04-19T14:34:55.754Z,15.17
2023-04-19T14:37:26.044Z,14.10
2023-04-19T14:39:54.365Z,14.47
2023-04-19T14:42:24.361Z,16.83
2023-04-19T14:44:53.118Z,15.90
2023-04-19T14:47:21.777Z,13.17
2023-04-19T14:49:50.551Z,13.03
2023-04-19T14:52:18.552Z,13.73
2023-04-19T14:54:47.884Z,17.47
2023-04-19T14:57:15.916Z,16.53
2023-04-19T14:59:44.163Z,13.07
2023-04-19T15:02:13.442Z,13.53
2023-04-19T15:04:42.355Z,16.27
2023-04-19T15:07:11.321Z,16.80
2023-04-19T15:09:40.260Z,14.27
2023-04-19T15:12:09.695Z,17.20
2023-04-19T15:14:38.099Z,15.77
2023-04-19T15:17:06.457Z,13.67
2023-04-19T15:19:34.406Z,16.77
2023-04-19T15:22:03.854Z,15.87
2023-04-19T15:24:31.886Z,17.00
2023-04-19T15:27:00.127Z,11.67
2023-04-19T15:29:29.594Z,14.03
2023-04-19T15:31:57.715Z,16.87
2023-04-19T15:34:26.249Z,11.60
2023-04-19T15:36:54.265Z,14.50
2023-04-19T15:39:22.248Z,12.80
2023-04-19T15:41:50.407Z,12.97
2023-04-19T15:44:18.637Z,14.03
2023-04-19T15:46:48.086Z,11.50
2023-04-19T15:49:16.433Z,16.37
2023-04-19T15:51:44.717Z,13.10
2023-04-19T15:54:14.519Z,10.90
2023-04-19T15:56:42.551Z,14.43
2023-04-19T15:59:10.506Z,17.57
2023-04-19T16:01:38.906Z,14.23
2023-04-19T16:04:08.479Z,19.17
2023-04-19T16:06:36.717Z,14.23
2023-04-19T16:09:06.429Z,15.00
2023-04-19T16:11:34.532Z,12.00
2023-04-19T16:14:02.611Z,12.60
2023-04-19T16:16:34.161Z,15.47
2023-04-19T16:19:02.497Z,14.30
2023-04-19T16:21:31.898Z,15.83
2023-04-19T16:24:00.718Z,25.80
2023-04-19T16:26:28.857Z,13.70
2023-04-19T16:28:56.827Z,11.87
2023-04-19T16:31:24.906Z,13.90
2023-04-19T16:33:53.019Z,11.20
2023-04-19T16:36:21.086Z,13.90
2023-04-19T16:38:50.882Z,17.87
2023-04-19T16:41:18.840Z,14.43
2023-04-19T16:43:46.791Z,14.90
2023-04-19T16:46:14.994Z,14.43
2023-04-19T16:48:42.946Z,11.80
2023-04-19T16:51:10.907Z,12.53
2023-04-19T16:53:39.050Z,12.13
2023-04-19T16:56:08.668Z,12.67
2023-04-19T16:58:36.682Z,10.90
2023-04-19T17:01:05.290Z,12.47
2023-04-19T17:03:34.906Z,13.50
2023-04-19T17:06:03.164Z,10.20
2023-04-19T17:08:32.302Z,12.00
2023-04-19T17:11:00.279Z,10.10
2023-04-19T17:13:29.655Z,12.10
2023-04-19T17:15:57.938Z,25.97
2023-04-19T17:18:25.863Z,11.90
2023-04-19T17:20:54.149Z,25.43
2023-04-19T17:23:22.207Z,38.80
2023-04-19T17:25:50.304Z,27.93
2023-04-19T17:28:18.290Z,15.43
2023-04-19T17:30:47.588Z,12.00
2023-04-19T17:33:15.640Z,14.60
2023-04-19T17:35:43.899Z,14.07
2023-04-19T17:38:12.604Z,11.23
2023-04-19T17:40:40.591Z,13.73
2023-04-19T17:43:10.449Z,12.13
2023-04-19T17:45:38.413Z,12.20
2023-04-19T17:48:08.078Z,12.20
2023-04-19T17:50:36.300Z,17.53
2023-04-19T17:53:04.292Z,16.60
2023-04-19T17:55:33.016Z,16.10
2023-04-19T17:58:01.202Z,17.97
2023-04-19T18:00:29.275Z,19.53
2023-04-19T18:02:57.331Z,19.07
2023-04-19T18:05:27.002Z,26.33
2023-04-19T18:07:55.075Z,22.77
2023-04-19T18:10:23.220Z,39.93
2023-04-19T18:12:51.277Z,24.17
2023-04-19T18:15:19.306Z,27.33
2023-04-19T18:17:47.384Z,28.63
2023-04-19T18:20:16.096Z,15.90
2023-04-19T18:22:48.732Z,19.03
2023-04-19T18:25:16.827Z,10.27
2023-04-19T18:27:45.238Z,14.23
2023-04-19T18:30:13.735Z,19.17
2023-04-19T18:32:41.693Z,17.03
2023-04-19T18:35:10.818Z,15.70
2023-04-19T18:37:38.971Z,16.83
2023-04-19T18:40:09.925Z,14.70
2023-04-19T18:42:37.861Z,15.50
2023-04-19T18:45:07.061Z,16.60
2023-04-19T18:47:35.054Z,11.83
2023-04-19T18:50:05.341Z,30.10
2023-04-19T18:52:35.314Z,34.03
2023-04-19T18:55:03.582Z,30.33
2023-04-19T18:57:35.067Z,28.00
2023-04-19T19:00:05.855Z,20.43
2023-04-19T19:02:36.065Z,18.67
2023-04-19T19:05:07.536Z,26.00
2023-04-19T19:07:37.830Z,45.57
2023-04-19T19:12:42.958Z,25.60
2023-04-19T19:15:11.453Z,26.77
2023-04-19T19:17:39.542Z,25.87
2023-04-19T19:20:09.061Z,28.23
2023-04-19T19:22:37.046Z,39.30
2023-04-19T19:25:05.605Z,27.37
2023-04-19T19:27:33.595Z,28.50
2023-04-19T19:30:03.774Z,28.47
2023-04-19T19:32:32.645Z,24.37
2023-04-19T19:35:04.800Z,22.33
2023-04-19T19:37:36.183Z,47.43
2023-04-19T19:40:06.525Z,71.03
2023-04-19T19:42:34.868Z,69.37
2023-04-19T19:45:06.810Z,23.40
2023-04-19T19:47:35.525Z,44.70
2023-04-19T19:50:52.079Z,22.90
2023-04-19T19:52:52.690Z,21.43
2023-04-19T19:55:20.779Z,17.70
2023-04-19T19:58:25.767Z,20.87
2023-04-19T20:00:46.307Z,17.30
2023-04-19T20:03:21.808Z,14.50
2023-04-19T20:06:05.534Z,17.87
2023-04-19T20:08:47.344Z,15.07
2023-04-19T20:11:15.386Z,18.70
2023-04-19T20:13:43.392Z,23.53
2023-04-19T20:16:14.508Z,18.30
2023-04-19T20:18:43.188Z,20.60
2023-04-19T20:21:11.345Z,18.03
2023-04-19T20:23:40.135Z,17.43
2023-04-19T20:26:08.466Z,15.00
2023-04-19T20:28:36.542Z,18.37
2023-04-19T20:31:04.924Z,17.90
2023-04-19T20:33:34.270Z,20.90
2023-04-19T20:36:03.626Z,24.90
2023-04-19T20:38:34.451Z,16.60
2023-04-19T20:41:03.089Z,20.20
2023-04-19T20:43:31.619Z,14.17
2023-04-19T20:45:59.761Z,15.63
2023-04-19T20:48:27.723Z,15.43
2023-04-19T20:50:57.001Z,17.83
2023-04-19T20:53:25.025Z,19.70
2023-04-19T20:55:53.105Z,26.43
2023-04-19T20:58:21.146Z,16.10
2023-04-19T21:00:50.935Z,19.10
2023-04-19T21:03:19.136Z,17.57
2023-04-19T21:05:47.189Z,59.17
2023-04-19T21:08:18.311Z,50.97
2023-04-19T21:10:46.255Z,40.63
2023-04-19T21:13:14.216Z,26.33
2023-04-19T21:15:42.407Z,24.10
2023-04-19T21:18:10.490Z,21.83
2023-04-19T21:20:39.389Z,19.57
2023-04-19T21:23:08.671Z,18.57
2023-04-19T21:25:38.153Z,16.10
2023-04-19T21:28:06.167Z,15.83
2023-04-19T21:30:38.564Z,16.63
2023-04-19T21:33:06.653Z,16.40
2023-04-19T21:35:35.440Z,13.00
2023-04-19T21:38:03.624Z,15.00
2023-04-19T21:40:31.726Z,16.80
2023-04-19T21:43:01.052Z,20.67
2023-04-19T21:45:29.208Z,14.60
2023-04-19T21:47:57.181Z,17.90
2023-04-19T21:50:25.203Z,18.30
2023-04-19T21:52:53.246Z,16.80
2023-04-19T21:55:21.425Z,19.17
2023-04-19T21:57:50.067Z,17.27
2023-04-19T22:00:19.832Z,18.70
2023-04-19T22:02:47.826Z,18.27
2023-04-19T22:05:16.673Z,17.07
2023-04-19T22:07:45.026Z,17.80
2023-04-19T22:10:13.399Z,17.73
2023-04-19T22:12:55.050Z,20.47
2023-04-19T22:15:27.808Z,20.00
2023-04-19T22:17:57.172Z,17.07
2023-04-19T22:20:26.804Z,16.10
2023-04-19T22:22:54.792Z,18.00
2023-04-19T22:25:22.881Z,19.67
2023-04-19T22:27:50.980Z,15.23
2023-04-19T22:30:18.938Z,19.03
2023-04-19T22:32:48.594Z,17.03
2023-04-19T22:35:17.092Z,16.90
2023-04-19T22:37:45.052Z,15.60
2023-04-19T22:40:13.875Z,17.50
2023-04-19T22:42:41.836Z,16.13
2023-04-19T22:45:10.895Z,18.13
2023-04-19T22:47:38.989Z,21.10
2023-04-19T22:50:09.833Z,17.43
2023-04-19T22:52:38.359Z,17.40
2023-04-19T22:55:07.009Z,17.80
2023-04-19T22:57:35.006Z,20.17
2023-04-19T23:00:05.656Z,17.50
2023-04-19T23:02:33.706Z,18.90
2023-04-19T23:05:02.176Z,18.40
2023-04-19T23:07:31.641Z,18.50
2023-04-19T23:09:59.714Z,18.03
2023-04-19T23:12:27.702Z,17.93
2023-04-19T23:14:55.645Z,17.97
2023-04-19T23:17:23.642Z,26.50
2023-04-19T23:19:51.617Z,17.27
2023-04-19T23:22:19.619Z,24.83
2023-04-19T23:24:48.955Z,18.70
2023-04-19T23:27:17.380Z,18.07
2023-04-19T23:29:45.331Z,16.80
2023-04-19T23:32:13.434Z,16.60
2023-04-19T23:34:41.448Z,18.73
2023-04-19T23:37:09.421Z,14.93
2023-04-19T23:39:38.189Z,16.93
2023-04-19T23:42:07.591Z,19.37
2023-04-19T23:44:35.726Z,16.70
2023-04-19T23:47:03.717Z,16.53
2023-04-19T23:49:32.378Z,21.43
2023-04-19T23:52:00.561Z,16.83
2023-04-19T23:54:28.508Z,18.70
2023-04-19T23:56:57.584Z,17.90
2023-04-19T23:59:27.754Z,20.33
